sensor_id;sensor_type;location;lat;lon;timestamp;P1;durP1;ratioP1;P2;durP2;ratioP2
2854;SDS011;1435;49.472;10.940;2023-04-12T00:04:17;4.30;;;3.07;;
2854;SDS011;1435;49.472;10.940;2023-04-12T00:09:23;4.07;;;2.80;;
2854;SDS011;1435;49.472;10.940;2023-04-12T00:14:29;5.00;;;3.47;;
2854;SDS011;1435;49.472;10.940;2023-04-12T00:19:31;5.83;;;3.30;;
2854;SDS011;1435;49.472;10.940;2023-04-12T00:24:34;5.10;;;3.43;;
2854;SDS011;1435;49.472;10.940;2023-04-12T00:29:38;3.57;;;3.10;;
2854;SDS011;1435;49.472;10.940;2023-04-12T00:34:40;3.70;;;3.40;;
2854;SDS011;1435;49.472;10.940;2023-04-12T00:39:43;8.60;;;3.70;;
2854;SDS011;1435;49.472;10.940;2023-04-12T00:44:44;5.30;;;4.00;;
2854;SDS011;1435;49.472;10.940;2023-04-12T00:49:46;5.73;;;3.33;;
2854;SDS011;1435;49.472;10.940;2023-04-12T00:54:49;7.90;;;3.50;;
2854;SDS011;1435;49.472;10.940;2023-04-12T00:59:53;8.50;;;3.90;;
2854;SDS011;1435;49.472;10.940;2023-04-12T01:04:55;6.07;;;3.60;;
2854;SDS011;1435;49.472;10.940;2023-04-12T01:10:00;3.67;;;3.17;;
2854;SDS011;1435;49.472;10.940;2023-04-12T01:15:07;6.60;;;3.13;;
2854;SDS011;1435;49.472;10.940;2023-04-12T01:20:13;5.13;;;3.37;;
2854;SDS011;1435;49.472;10.940;2023-04-12T01:25:23;4.17;;;3.00;;
2854;SDS011;1435;49.472;10.940;2023-04-12T01:30:39;3.40;;;2.97;;
2854;SDS011;1435;49.472;10.940;2023-04-12T01:35:43;4.53;;;4.13;;
2854;SDS011;1435;49.472;10.940;2023-04-12T01:40:46;8.40;;;2.97;;
2854;SDS011;1435;49.472;10.940;2023-04-12T01:45:50;3.60;;;2.73;;
2854;SDS011;1435;49.472;10.940;2023-04-12T01:50:54;2.40;;;2.20;;
2854;SDS011;1435;49.472;10.940;2023-04-12T01:56:06;3.17;;;2.50;;
2854;SDS011;1435;49.472;10.940;2023-04-12T02:01:10;4.83;;;3.03;;
2854;SDS011;1435;49.472;10.940;2023-04-12T02:06:14;5.80;;;2.70;;
2854;SDS011;1435;49.472;10.940;2023-04-12T02:11:18;7.07;;;3.27;;
2854;SDS011;1435;49.472;10.940;2023-04-12T02:16:21;5.30;;;3.33;;
2854;SDS011;1435;49.472;10.940;2023-04-12T02:21:23;3.47;;;2.77;;
2854;SDS011;1435;49.472;10.940;2023-04-12T02:26:25;5.40;;;3.23;;
2854;SDS011;1435;49.472;10.940;2023-04-12T02:31:28;3.50;;;2.90;;
2854;SDS011;1435;49.472;10.940;2023-04-12T02:36:30;5.53;;;3.50;;
2854;SDS011;1435;49.472;10.940;2023-04-12T02:41:32;4.97;;;3.17;;
2854;SDS011;1435;49.472;10.940;2023-04-12T02:46:35;3.73;;;2.57;;
2854;SDS011;1435;49.472;10.940;2023-04-12T02:51:36;3.80;;;2.63;;
2854;SDS011;1435;49.472;10.940;2023-04-12T02:56:38;3.10;;;2.53;;
2854;SDS011;1435;49.472;10.940;2023-04-12T03:01:41;4.80;;;3.10;;
2854;SDS011;1435;49.472;10.940;2023-04-12T03:06:45;3.83;;;2.97;;
2854;SDS011;1435;49.472;10.940;2023-04-12T03:11:53;4.93;;;2.63;;
2854;SDS011;1435;49.472;10.940;2023-04-12T03:16:56;4.53;;;2.43;;
2854;SDS011;1435;49.472;10.940;2023-04-12T03:21:57;3.80;;;2.80;;
2854;SDS011;1435;49.472;10.940;2023-04-12T03:27:00;5.33;;;3.77;;
2854;SDS011;1435;49.472;10.940;2023-04-12T03:32:04;12.27;;;3.07;;
2854;SDS011;1435;49.472;10.940;2023-04-12T03:37:06;5.03;;;2.90;;
2854;SDS011;1435;49.472;10.940;2023-04-12T03:42:07;4.03;;;3.73;;
2854;SDS011;1435;49.472;10.940;2023-04-12T03:47:10;6.50;;;2.87;;
2854;SDS011;1435;49.472;10.940;2023-04-12T03:52:12;6.80;;;2.77;;
2854;SDS011;1435;49.472;10.940;2023-04-12T03:57:14;5.47;;;3.23;;
2854;SDS011;1435;49.472;10.940;2023-04-12T04:02:17;4.90;;;2.77;;
2854;SDS011;1435;49.472;10.940;2023-04-12T04:07:19;7.60;;;4.10;;
2854;SDS011;1435;49.472;10.940;2023-04-12T04:12:21;8.87;;;3.00;;
2854;SDS011;1435;49.472;10.940;2023-04-12T04:17:24;5.20;;;2.80;;
2854;SDS011;1435;49.472;10.940;2023-04-12T04:22:26;5.80;;;3.57;;
2854;SDS011;1435;49.472;10.940;2023-04-12T04:27:28;5.27;;;2.90;;
2854;SDS011;1435;49.472;10.940;2023-04-12T04:32:34;5.03;;;3.33;;
2854;SDS011;1435;49.472;10.940;2023-04-12T04:37:36;3.80;;;2.83;;
2854;SDS011;1435;49.472;10.940;2023-04-12T04:42:39;3.40;;;2.90;;
2854;SDS011;1435;49.472;10.940;2023-04-12T04:47:43;6.10;;;3.27;;
2854;SDS011;1435;49.472;10.940;2023-04-12T04:52:45;6.30;;;3.10;;
2854;SDS011;1435;49.472;10.940;2023-04-12T04:57:47;3.40;;;3.10;;
2854;SDS011;1435;49.472;10.940;2023-04-12T05:02:50;5.37;;;3.53;;
2854;SDS011;1435;49.472;10.940;2023-04-12T05:07:52;5.27;;;3.30;;
2854;SDS011;1435;49.472;10.940;2023-04-12T05:12:54;8.80;;;3.03;;
2854;SDS011;1435;49.472;10.940;2023-04-12T05:17:57;5.80;;;3.63;;
2854;SDS011;1435;49.472;10.940;2023-04-12T05:22:59;4.30;;;2.90;;
2854;SDS011;1435;49.472;10.940;2023-04-12T05:28:01;5.03;;;3.27;;
2854;SDS011;1435;49.472;10.940;2023-04-12T05:33:04;4.97;;;2.87;;
2854;SDS011;1435;49.472;10.940;2023-04-12T05:38:06;7.33;;;4.37;;
2854;SDS011;1435;49.472;10.940;2023-04-12T05:43:07;6.07;;;3.47;;
2854;SDS011;1435;49.472;10.940;2023-04-12T05:48:13;4.10;;;2.73;;
2854;SDS011;1435;49.472;10.940;2023-04-12T05:53:14;5.70;;;3.67;;
2854;SDS011;1435;49.472;10.940;2023-04-12T05:58:16;5.63;;;3.13;;
2854;SDS011;1435;49.472;10.940;2023-04-12T06:03:19;3.97;;;3.60;;
2854;SDS011;1435;49.472;10.940;2023-04-12T06:08:22;6.73;;;4.00;;
2854;SDS011;1435;49.472;10.940;2023-04-12T06:13:24;4.90;;;4.40;;
2854;SDS011;1435;49.472;10.940;2023-04-12T06:18:27;4.17;;;3.77;;
2854;SDS011;1435;49.472;10.940;2023-04-12T06:23:29;4.80;;;3.63;;
2854;SDS011;1435;49.472;10.940;2023-04-12T06:28:31;5.03;;;2.97;;
2854;SDS011;1435;49.472;10.940;2023-04-12T06:33:34;5.40;;;4.10;;
2854;SDS011;1435;49.472;10.940;2023-04-12T06:38:37;3.60;;;3.30;;
2854;SDS011;1435;49.472;10.940;2023-04-12T06:43:39;3.90;;;3.60;;
2854;SDS011;1435;49.472;10.940;2023-04-12T06:48:42;4.80;;;3.33;;
2854;SDS011;1435;49.472;10.940;2023-04-12T06:53:44;3.87;;;3.20;;
2854;SDS011;1435;49.472;10.940;2023-04-12T06:58:46;6.50;;;3.20;;
2854;SDS011;1435;49.472;10.940;2023-04-12T07:03:49;5.10;;;3.13;;
2854;SDS011;1435;49.472;10.940;2023-04-12T07:08:50;3.33;;;2.80;;
2854;SDS011;1435;49.472;10.940;2023-04-12T07:13:52;4.20;;;3.50;;
2854;SDS011;1435;49.472;10.940;2023-04-12T07:18:55;3.67;;;3.33;;
2854;SDS011;1435;49.472;10.940;2023-04-12T07:23:57;3.80;;;2.63;;
2854;SDS011;1435;49.472;10.940;2023-04-12T07:28:59;3.37;;;2.63;;
2854;SDS011;1435;49.472;10.940;2023-04-12T07:34:02;1.93;;;1.83;;
2854;SDS011;1435;49.472;10.940;2023-04-12T07:39:04;2.97;;;2.77;;
2854;SDS011;1435;49.472;10.940;2023-04-12T07:44:05;2.97;;;2.63;;
2854;SDS011;1435;49.472;10.940;2023-04-12T07:49:08;2.97;;;2.70;;
2854;SDS011;1435;49.472;10.940;2023-04-12T07:54:10;2.67;;;2.27;;
2854;SDS011;1435;49.472;10.940;2023-04-12T07:59:13;2.40;;;2.20;;
2854;SDS011;1435;49.472;10.940;2023-04-12T08:04:16;4.23;;;2.63;;
2854;SDS011;1435;49.472;10.940;2023-04-12T08:09:18;4.90;;;2.37;;
2854;SDS011;1435;49.472;10.940;2023-04-12T08:14:20;2.17;;;1.97;;
2854;SDS011;1435;49.472;10.940;2023-04-12T08:19:23;2.40;;;2.20;;
2854;SDS011;1435;49.472;10.940;2023-04-12T08:24:26;2.67;;;2.30;;
2854;SDS011;1435;49.472;10.940;2023-04-12T08:29:27;2.50;;;2.30;;
2854;SDS011;1435;49.472;10.940;2023-04-12T08:34:31;3.13;;;2.30;;
2854;SDS011;1435;49.472;10.940;2023-04-12T08:39:33;2.47;;;2.20;;
2854;SDS011;1435;49.472;10.940;2023-04-12T08:44:35;2.90;;;2.10;;
2854;SDS011;1435;49.472;10.940;2023-04-12T08:49:39;2.90;;;2.23;;
2854;SDS011;1435;49.472;10.940;2023-04-12T08:54:40;2.10;;;1.87;;
2854;SDS011;1435;49.472;10.940;2023-04-12T08:59:42;2.87;;;2.67;;
2854;SDS011;1435;49.472;10.940;2023-04-12T09:04:48;2.13;;;1.93;;
2854;SDS011;1435;49.472;10.940;2023-04-12T09:09:51;3.17;;;2.87;;
2854;SDS011;1435;49.472;10.940;2023-04-12T09:15:06;1.87;;;1.77;;
2854;SDS011;1435;49.472;10.940;2023-04-12T09:20:22;2.43;;;2.03;;
2854;SDS011;1435;49.472;10.940;2023-04-12T09:25:34;2.30;;;2.10;;
2854;SDS011;1435;49.472;10.940;2023-04-12T09:30:39;2.43;;;2.23;;
2854;SDS011;1435;49.472;10.940;2023-04-12T09:35:43;2.70;;;2.10;;
2854;SDS011;1435;49.472;10.940;2023-04-12T09:40:45;2.40;;;2.20;;
2854;SDS011;1435;49.472;10.940;2023-04-12T09:45:49;2.17;;;1.93;;
2854;SDS011;1435;49.472;10.940;2023-04-12T09:50:58;2.10;;;2.00;;
2854;SDS011;1435;49.472;10.940;2023-04-12T09:56:00;2.30;;;1.70;;
2854;SDS011;1435;49.472;10.940;2023-04-12T10:01:04;3.73;;;2.27;;
2854;SDS011;1435;49.472;10.940;2023-04-12T10:06:10;2.77;;;2.57;;
2854;SDS011;1435;49.472;10.940;2023-04-12T10:11:13;2.63;;;2.30;;
2854;SDS011;1435;49.472;10.940;2023-04-12T10:16:15;2.90;;;2.50;;
2854;SDS011;1435;49.472;10.940;2023-04-12T10:21:18;2.80;;;2.60;;
2854;SDS011;1435;49.472;10.940;2023-04-12T10:26:21;3.23;;;2.80;;
2854;SDS011;1435;49.472;10.940;2023-04-12T10:31:26;3.10;;;2.43;;
2854;SDS011;1435;49.472;10.940;2023-04-12T10:42:19;3.73;;;3.43;;
2854;SDS011;1435;49.472;10.940;2023-04-12T10:53:20;3.83;;;3.47;;
2854;SDS011;1435;49.472;10.940;2023-04-12T11:04:08;4.57;;;4.17;;
2854;SDS011;1435;49.472;10.940;2023-04-12T11:09:22;5.30;;;4.90;;
2854;SDS011;1435;49.472;10.940;2023-04-12T11:14:32;5.30;;;4.80;;
2854;SDS011;1435;49.472;10.940;2023-04-12T11:19:36;4.93;;;4.53;;
2854;SDS011;1435;49.472;10.940;2023-04-12T11:24:41;4.30;;;3.90;;
2854;SDS011;1435;49.472;10.940;2023-04-12T11:29:46;3.37;;;3.07;;
2854;SDS011;1435;49.472;10.940;2023-04-12T11:34:50;6.73;;;2.93;;
2854;SDS011;1435;49.472;10.940;2023-04-12T11:39:56;3.50;;;2.77;;
2854;SDS011;1435;49.472;10.940;2023-04-12T11:50:26;6.00;;;2.67;;
2854;SDS011;1435;49.472;10.940;2023-04-12T11:55:31;2.60;;;2.40;;
2854;SDS011;1435;49.472;10.940;2023-04-12T12:00:32;2.53;;;2.33;;
2854;SDS011;1435;49.472;10.940;2023-04-12T12:05:35;2.87;;;2.23;;
2854;SDS011;1435;49.472;10.940;2023-04-12T12:10:39;2.53;;;2.20;;
2854;SDS011;1435;49.472;10.940;2023-04-12T12:15:42;2.47;;;2.27;;
2854;SDS011;1435;49.472;10.940;2023-04-12T12:20:47;4.30;;;2.53;;
2854;SDS011;1435;49.472;10.940;2023-04-12T12:25:51;4.43;;;3.43;;
2854;SDS011;1435;49.472;10.940;2023-04-12T12:30:53;5.60;;;2.83;;
2854;SDS011;1435;49.472;10.940;2023-04-12T12:35:56;3.33;;;2.67;;
2854;SDS011;1435;49.472;10.940;2023-04-12T12:40:59;2.63;;;2.43;;
2854;SDS011;1435;49.472;10.940;2023-04-12T12:46:17;3.30;;;3.00;;
2854;SDS011;1435;49.472;10.940;2023-04-12T12:51:20;3.10;;;2.80;;
2854;SDS011;1435;49.472;10.940;2023-04-12T12:56:23;4.27;;;3.77;;
2854;SDS011;1435;49.472;10.940;2023-04-12T13:01:25;5.80;;;3.43;;
2854;SDS011;1435;49.472;10.940;2023-04-12T13:06:27;3.07;;;2.77;;
2854;SDS011;1435;49.472;10.940;2023-04-12T13:11:30;4.10;;;3.70;;
2854;SDS011;1435;49.472;10.940;2023-04-12T13:16:32;5.13;;;4.33;;
2854;SDS011;1435;49.472;10.940;2023-04-12T13:21:35;4.50;;;3.57;;
2854;SDS011;1435;49.472;10.940;2023-04-12T13:26:38;4.73;;;3.97;;
2854;SDS011;1435;49.472;10.940;2023-04-12T13:31:40;6.00;;;3.87;;
2854;SDS011;1435;49.472;10.940;2023-04-12T13:36:42;4.50;;;4.10;;
2854;SDS011;1435;49.472;10.940;2023-04-12T13:41:45;3.93;;;3.63;;
2854;SDS011;1435;49.472;10.940;2023-04-12T13:46:47;5.30;;;4.40;;
2854;SDS011;1435;49.472;10.940;2023-04-12T13:51:49;4.87;;;4.27;;
2854;SDS011;1435;49.472;10.940;2023-04-12T13:56:52;4.90;;;4.47;;
2854;SDS011;1435;49.472;10.940;2023-04-12T14:01:54;4.80;;;4.40;;
2854;SDS011;1435;49.472;10.940;2023-04-12T14:06:55;8.93;;;4.03;;
2854;SDS011;1435;49.472;10.940;2023-04-12T14:11:59;5.17;;;4.47;;
2854;SDS011;1435;49.472;10.940;2023-04-12T14:17:01;7.27;;;4.60;;
2854;SDS011;1435;49.472;10.940;2023-04-12T14:22:03;4.97;;;4.40;;
2854;SDS011;1435;49.472;10.940;2023-04-12T14:27:07;4.70;;;4.30;;
2854;SDS011;1435;49.472;10.940;2023-04-12T14:32:08;5.23;;;4.83;;
2854;SDS011;1435;49.472;10.940;2023-04-12T14:37:10;4.63;;;4.23;;
2854;SDS011;1435;49.472;10.940;2023-04-12T14:42:13;4.80;;;4.30;;
2854;SDS011;1435;49.472;10.940;2023-04-12T14:47:15;4.43;;;4.00;;
2854;SDS011;1435;49.472;10.940;2023-04-12T14:52:17;5.00;;;4.50;;
2854;SDS011;1435;49.472;10.940;2023-04-12T14:57:20;4.27;;;3.87;;
2854;SDS011;1435;49.472;10.940;2023-04-12T15:02:22;4.73;;;4.23;;
2854;SDS011;1435;49.472;10.940;2023-04-12T15:07:24;4.07;;;3.67;;
2854;SDS011;1435;49.472;10.940;2023-04-12T15:12:27;4.60;;;3.20;;
2854;SDS011;1435;49.472;10.940;2023-04-12T15:17:32;3.77;;;3.37;;
2854;SDS011;1435;49.472;10.940;2023-04-12T15:22:34;3.67;;;3.30;;
2854;SDS011;1435;49.472;10.940;2023-04-12T15:27:37;3.90;;;3.10;;
2854;SDS011;1435;49.472;10.940;2023-04-12T15:32:39;3.13;;;2.77;;
2854;SDS011;1435;49.472;10.940;2023-04-12T15:37:41;3.60;;;2.70;;
2854;SDS011;1435;49.472;10.940;2023-04-12T15:42:44;3.00;;;2.50;;
2854;SDS011;1435;49.472;10.940;2023-04-12T15:47:46;5.67;;;2.50;;
2854;SDS011;1435;49.472;10.940;2023-04-12T15:52:47;2.77;;;2.57;;
2854;SDS011;1435;49.472;10.940;2023-04-12T15:57:51;5.73;;;4.03;;
2854;SDS011;1435;49.472;10.940;2023-04-12T16:02:53;10.97;;;6.07;;
2854;SDS011;1435;49.472;10.940;2023-04-12T16:07:55;4.57;;;3.30;;
2854;SDS011;1435;49.472;10.940;2023-04-12T16:12:59;4.17;;;3.10;;
2854;SDS011;1435;49.472;10.940;2023-04-12T16:18:00;3.57;;;3.20;;
2854;SDS011;1435;49.472;10.940;2023-04-12T16:23:02;2.60;;;2.40;;
2854;SDS011;1435;49.472;10.940;2023-04-12T16:28:05;2.43;;;2.23;;
2854;SDS011;1435;49.472;10.940;2023-04-12T16:33:07;3.20;;;2.80;;
2854;SDS011;1435;49.472;10.940;2023-04-12T16:38:09;2.90;;;2.37;;
2854;SDS011;1435;49.472;10.940;2023-04-12T16:43:13;2.97;;;2.60;;
2854;SDS011;1435;49.472;10.940;2023-04-12T16:48:15;2.90;;;2.70;;
2854;SDS011;1435;49.472;10.940;2023-04-12T16:53:17;3.80;;;3.13;;
2854;SDS011;1435;49.472;10.940;2023-04-12T16:58:20;3.27;;;2.97;;
2854;SDS011;1435;49.472;10.940;2023-04-12T17:03:23;3.37;;;3.07;;
2854;SDS011;1435;49.472;10.940;2023-04-12T17:08:25;4.77;;;3.90;;
2854;SDS011;1435;49.472;10.940;2023-04-12T17:13:28;3.77;;;2.80;;
2854;SDS011;1435;49.472;10.940;2023-04-12T17:18:30;3.17;;;1.80;;
2854;SDS011;1435;49.472;10.940;2023-04-12T17:23:33;1.23;;;1.13;;
2854;SDS011;1435;49.472;10.940;2023-04-12T17:28:38;1.20;;;1.00;;
2854;SDS011;1435;49.472;10.940;2023-04-12T17:33:40;1.43;;;0.90;;
2854;SDS011;1435;49.472;10.940;2023-04-12T17:38:42;0.70;;;0.70;;
2854;SDS011;1435;49.472;10.940;2023-04-12T17:43:45;0.70;;;0.70;;
2854;SDS011;1435;49.472;10.940;2023-04-12T17:48:47;0.80;;;0.60;;
2854;SDS011;1435;49.472;10.940;2023-04-12T17:53:48;1.97;;;0.63;;
2854;SDS011;1435;49.472;10.940;2023-04-12T17:58:52;1.10;;;1.00;;
2854;SDS011;1435;49.472;10.940;2023-04-12T18:03:53;2.07;;;1.10;;
2854;SDS011;1435;49.472;10.940;2023-04-12T18:08:56;0.70;;;0.60;;
2854;SDS011;1435;49.472;10.940;2023-04-12T18:13:59;0.70;;;0.60;;
2854;SDS011;1435;49.472;10.940;2023-04-12T18:19:01;2.57;;;1.10;;
2854;SDS011;1435;49.472;10.940;2023-04-12T18:24:04;1.73;;;1.33;;
2854;SDS011;1435;49.472;10.940;2023-04-12T18:29:08;2.87;;;1.17;;
2854;SDS011;1435;49.472;10.940;2023-04-12T18:34:12;0.70;;;0.70;;
2854;SDS011;1435;49.472;10.940;2023-04-12T18:39:14;0.70;;;0.40;;
2854;SDS011;1435;49.472;10.940;2023-04-12T18:44:17;0.40;;;0.40;;
2854;SDS011;1435;49.472;10.940;2023-04-12T18:49:19;0.60;;;0.60;;
2854;SDS011;1435;49.472;10.940;2023-04-12T18:54:21;0.60;;;0.60;;
2854;SDS011;1435;49.472;10.940;2023-04-12T18:59:24;1.53;;;0.87;;
2854;SDS011;1435;49.472;10.940;2023-04-12T19:04:26;1.33;;;0.60;;
2854;SDS011;1435;49.472;10.940;2023-04-12T19:09:28;0.90;;;0.70;;
2854;SDS011;1435;49.472;10.940;2023-04-12T19:14:31;0.80;;;0.80;;
2854;SDS011;1435;49.472;10.940;2023-04-12T19:19:32;0.80;;;0.80;;
2854;SDS011;1435;49.472;10.940;2023-04-12T19:24:34;0.60;;;0.60;;
2854;SDS011;1435;49.472;10.940;2023-04-12T19:29:37;1.60;;;1.03;;
2854;SDS011;1435;49.472;10.940;2023-04-12T19:34:39;1.00;;;1.00;;
2854;SDS011;1435;49.472;10.940;2023-04-12T19:39:41;1.13;;;1.00;;
2854;SDS011;1435;49.472;10.940;2023-04-12T19:44:45;1.10;;;0.87;;
2854;SDS011;1435;49.472;10.940;2023-04-12T19:49:46;1.17;;;1.07;;
2854;SDS011;1435;49.472;10.940;2023-04-12T19:54:48;1.67;;;0.90;;
2854;SDS011;1435;49.472;10.940;2023-04-12T19:59:52;0.90;;;0.90;;
2854;SDS011;1435;49.472;10.940;2023-04-12T20:04:54;1.10;;;0.80;;
2854;SDS011;1435;49.472;10.940;2023-04-12T20:09:56;0.87;;;0.63;;
2854;SDS011;1435;49.472;10.940;2023-04-12T20:15:00;1.10;;;1.00;;
2854;SDS011;1435;49.472;10.940;2023-04-12T20:20:03;0.87;;;0.87;;
2854;SDS011;1435;49.472;10.940;2023-04-12T20:25:09;1.23;;;1.10;;
2854;SDS011;1435;49.472;10.940;2023-04-12T20:30:16;1.20;;;1.10;;
2854;SDS011;1435;49.472;10.940;2023-04-12T20:35:19;1.47;;;1.37;;
2854;SDS011;1435;49.472;10.940;2023-04-12T20:40:21;1.60;;;1.30;;
2854;SDS011;1435;49.472;10.940;2023-04-12T20:45:27;1.10;;;1.10;;
2854;SDS011;1435;49.472;10.940;2023-04-12T20:50:29;1.60;;;1.50;;
2854;SDS011;1435;49.472;10.940;2023-04-12T20:55:32;1.13;;;1.10;;
2854;SDS011;1435;49.472;10.940;2023-04-12T21:00:35;1.60;;;1.50;;
2854;SDS011;1435;49.472;10.940;2023-04-12T21:05:36;1.43;;;1.30;;
2854;SDS011;1435;49.472;10.940;2023-04-12T21:10:39;1.40;;;1.30;;
2854;SDS011;1435;49.472;10.940;2023-04-12T21:15:43;1.27;;;1.10;;
2854;SDS011;1435;49.472;10.940;2023-04-12T21:20:44;1.60;;;1.50;;
2854;SDS011;1435;49.472;10.940;2023-04-12T21:25:46;3.23;;;2.53;;
2854;SDS011;1435;49.472;10.940;2023-04-12T21:30:50;2.23;;;2.03;;
2854;SDS011;1435;49.472;10.940;2023-04-12T21:35:54;3.40;;;2.10;;
2854;SDS011;1435;49.472;10.940;2023-04-12T21:41:03;2.00;;;1.90;;
2854;SDS011;1435;49.472;10.940;2023-04-12T21:46:06;2.33;;;2.13;;
2854;SDS011;1435;49.472;10.940;2023-04-12T21:51:08;2.50;;;2.40;;
2854;SDS011;1435;49.472;10.940;2023-04-12T21:56:11;2.13;;;1.70;;
2854;SDS011;1435;49.472;10.940;2023-04-12T22:01:14;1.60;;;1.50;;
2854;SDS011;1435;49.472;10.940;2023-04-12T22:06:16;1.40;;;1.30;;
2854;SDS011;1435;49.472;10.940;2023-04-12T22:11:19;1.50;;;1.30;;
2854;SDS011;1435;49.472;10.940;2023-04-12T22:16:22;1.47;;;1.37;;
2854;SDS011;1435;49.472;10.940;2023-04-12T22:21:23;1.10;;;1.10;;
2854;SDS011;1435;49.472;10.940;2023-04-12T22:26:27;1.33;;;1.07;;
2854;SDS011;1435;49.472;10.940;2023-04-12T22:31:32;1.10;;;1.00;;
2854;SDS011;1435;49.472;10.940;2023-04-12T22:36:33;1.40;;;1.30;;
2854;SDS011;1435;49.472;10.940;2023-04-12T22:41:36;3.50;;;1.33;;
2854;SDS011;1435;49.472;10.940;2023-04-12T22:46:39;1.50;;;1.00;;
2854;SDS011;1435;49.472;10.940;2023-04-12T22:51:42;2.00;;;1.30;;
2854;SDS011;1435;49.472;10.940;2023-04-12T22:56:45;1.20;;;1.10;;
2854;SDS011;1435;49.472;10.940;2023-04-12T23:01:48;1.33;;;1.30;;
2854;SDS011;1435;49.472;10.940;2023-04-12T23:06:51;1.20;;;1.10;;
2854;SDS011;1435;49.472;10.940;2023-04-12T23:11:54;1.20;;;1.10;;
2854;SDS011;1435;49.472;10.940;2023-04-12T23:16:57;1.83;;;1.40;;
2854;SDS011;1435;49.472;10.940;2023-04-12T23:22:00;1.00;;;1.00;;
2854;SDS011;1435;49.472;10.940;2023-04-12T23:27:02;1.17;;;0.97;;
2854;SDS011;1435;49.472;10.940;2023-04-12T23:32:05;1.03;;;0.90;;
2854;SDS011;1435;49.472;10.940;2023-04-12T23:37:07;1.23;;;1.00;;
2854;SDS011;1435;49.472;10.940;2023-04-12T23:42:10;1.00;;;0.93;;
2854;SDS011;1435;49.472;10.940;2023-04-12T23:47:13;0.83;;;0.83;;
2854;SDS011;1435;49.472;10.940;2023-04-12T23:52:14;1.00;;;0.80;;
2854;SDS011;1435;49.472;10.940;2023-04-12T23:57:17;1.90;;;0.60;;
